createdAt,value
2019-02-24T00:02:33.420Z,18.6
2019-02-24T00:03:23.233Z,18.6
2019-02-24T00:04:13.766Z,18.6
2019-02-24T00:05:03.360Z,18.6
2019-02-24T00:05:53.400Z,18.6
2019-02-24T00:06:43.408Z,18.5
2019-02-24T00:07:33.995Z,18.5
2019-02-24T00:08:24.107Z,18.5
2019-02-24T00:09:14.411Z,18.5
2019-02-24T00:10:03.957Z,18.4
2019-02-24T00:10:54.549Z,18.4
2019-02-24T00:11:44.602Z,18.4
2019-02-24T00:12:34.612Z,18.4
2019-02-24T00:13:24.676Z,18.4
2019-02-24T00:14:14.208Z,18.4
2019-02-24T00:15:04.547Z,18.3
2019-02-24T00:15:54.842Z,18.3
2019-02-24T00:16:44.895Z,18.3
2019-02-24T00:17:34.409Z,18.3
2019-02-24T00:18:24.732Z,18.3
2019-02-24T00:19:14.532Z,18.3
2019-02-24T00:20:04.862Z,18.3
2019-02-24T00:20:55.199Z,18.3
2019-02-24T00:21:44.984Z,18.3
2019-02-24T00:22:35.014Z,18.3
2019-02-24T00:23:25.352Z,18.2
2019-02-24T00:24:14.849Z,18.2
2019-02-24T00:25:05.011Z,18.2
2019-02-24T00:25:55.527Z,18.2
2019-02-24T00:26:45.309Z,18.2
2019-02-24T00:27:35.639Z,18.1
2019-02-24T00:28:25.710Z,18.1
2019-02-24T00:29:15.796Z,18.1
2019-02-24T00:30:05.821Z,18.1
2019-02-24T00:30:55.034Z,18.1
2019-02-24T00:31:45.989Z,18.1
2019-02-24T00:32:37.848Z,18.1
2019-02-24T00:33:26.107Z,18.1
2019-02-24T00:34:15.824Z,18.1
2019-02-24T00:35:05.888Z,18.1
2019-02-24T00:35:56.256Z,18.1
2019-02-24T00:36:45.168Z,18
2019-02-24T00:37:36.071Z,18
2019-02-24T00:38:26.384Z,18
2019-02-24T00:39:15.979Z,18
2019-02-24T00:40:06.520Z,18
2019-02-24T00:40:55.999Z,18
2019-02-24T00:41:46.608Z,18
2019-02-24T00:42:36.736Z,17.9
2019-02-24T00:43:25.903Z,17.9
2019-02-24T00:44:16.835Z,17.9
2019-02-24T00:45:06.295Z,17.9
2019-02-24T00:45:56.340Z,17.9
2019-02-24T00:46:46.470Z,17.9
2019-02-24T00:47:37.025Z,17.9
2019-02-24T00:48:27.120Z,17.9
2019-02-24T00:49:17.155Z,17.9
2019-02-24T00:50:06.663Z,17.9
2019-02-24T00:50:57.251Z,17.9
2019-02-24T00:51:47.065Z,17.9
2019-02-24T00:52:36.533Z,17.9
2019-02-24T00:53:26.865Z,17.9
2019-02-24T00:54:16.720Z,17.9
2019-02-24T00:55:06.780Z,17.9
2019-02-24T00:55:57.082Z,17.8
2019-02-24T00:56:46.807Z,17.9
2019-02-24T00:57:36.955Z,17.8
2019-02-24T00:58:26.448Z,17.8
2019-02-24T00:59:17.072Z,17.8
2019-02-24T01:00:07.387Z,17.8
2019-02-24T01:00:57.177Z,17.8
2019-02-24T01:01:47.427Z,17.8
2019-02-24T01:02:37.554Z,17.8
2019-02-24T01:03:27.055Z,17.8
2019-02-24T01:04:17.684Z,17.8
2019-02-24T01:05:07.743Z,17.8
2019-02-24T01:05:57.223Z,17.8
2019-02-24T01:06:47.587Z,17.8
2019-02-24T01:07:37.122Z,17.8
2019-02-24T01:08:27.127Z,17.8
2019-02-24T01:09:17.472Z,17.8
2019-02-24T01:10:07.529Z,17.8
2019-02-24T01:10:57.912Z,17.8
2019-02-24T01:11:47.642Z,17.7
2019-02-24T01:12:38.267Z,17.7
2019-02-24T01:13:27.749Z,17.7
2019-02-24T01:14:18.148Z,17.7
2019-02-24T01:15:08.427Z,17.7
2019-02-24T01:15:58.479Z,17.8
2019-02-24T01:16:48.266Z,17.7
2019-02-24T01:17:38.314Z,17.7
2019-02-24T01:18:28.092Z,17.7
2019-02-24T01:19:17.894Z,17.7
2019-02-24T01:20:08.481Z,17.7
2019-02-24T01:20:58.886Z,17.7
2019-02-24T01:21:48.608Z,17.7
2019-02-24T01:22:38.650Z,17.7
2019-02-24T01:23:28.771Z,17.7
2019-02-24T01:24:18.778Z,17.7
2019-02-24T01:25:09.169Z,17.7
2019-02-24T01:25:58.613Z,17.7
2019-02-24T01:26:49.140Z,17.7
2019-02-24T01:27:39.791Z,17.7
2019-02-24T01:28:30.566Z,17.6
2019-02-24T01:29:19.893Z,17.6
2019-02-24T01:30:09.948Z,17.6
2019-02-24T01:30:58.961Z,17.6
2019-02-24T01:31:49.003Z,17.6
2019-02-24T01:32:40.096Z,17.6
2019-02-24T01:33:29.646Z,17.6
2019-02-24T01:34:19.982Z,17.6
2019-02-24T01:35:09.780Z,17.6
2019-02-24T01:35:59.495Z,17.6
2019-02-24T01:36:50.383Z,17.6
2019-02-24T01:37:39.918Z,17.6
2019-02-24T01:38:30.003Z,17.6
2019-02-24T01:39:20.282Z,17.6
2019-02-24T01:40:10.625Z,17.6
2019-02-24T01:41:00.110Z,17.6
2019-02-24T01:41:50.737Z,17.6
2019-02-24T01:42:40.790Z,17.6
2019-02-24T01:43:30.557Z,17.6
2019-02-24T01:44:20.125Z,17.6
2019-02-24T01:45:10.975Z,17.6
2019-02-24T01:46:00.455Z,17.6
2019-02-24T01:46:50.803Z,17.6
2019-02-24T01:47:40.590Z,17.6
2019-02-24T01:48:30.897Z,17.6
2019-02-24T01:49:21.249Z,17.6
2019-02-24T01:50:11.053Z,17.6
2019-02-24T01:51:01.084Z,17.6
2019-02-24T01:51:50.872Z,17.6
2019-02-24T01:52:41.217Z,17.6
2019-02-24T01:53:31.530Z,17.6
2019-02-24T01:54:21.612Z,17.6
2019-02-24T01:55:11.084Z,17.6
2019-02-24T01:56:00.892Z,17.6
2019-02-24T01:56:51.497Z,17.5
2019-02-24T01:57:41.534Z,17.6
2019-02-24T01:58:40.119Z,17.5
2019-02-24T01:59:21.962Z,17.6
2019-02-24T02:00:11.729Z,17.6
2019-02-24T02:01:01.779Z,17.6
2019-02-24T02:01:52.102Z,17.7
2019-02-24T02:02:41.616Z,17.8
2019-02-24T02:03:31.692Z,17.9
2019-02-24T02:04:21.464Z,18
2019-02-24T02:05:11.785Z,18.2
2019-02-24T02:06:02.116Z,18.4
2019-02-24T02:06:51.882Z,18.6
2019-02-24T02:07:42.561Z,18.9
2019-02-24T02:08:32.596Z,19.3
2019-02-24T02:09:22.406Z,19.6
2019-02-24T02:10:12.691Z,19.9
2019-02-24T02:11:02.759Z,20.3
2019-02-24T02:11:52.504Z,20.6
2019-02-24T02:12:42.563Z,21
2019-02-24T02:13:32.628Z,21.4
2019-02-24T02:14:22.703Z,21.8
2019-02-24T02:15:13.017Z,22.2
2019-02-24T02:16:03.073Z,22.6
2019-02-24T02:16:53.138Z,23
2019-02-24T02:17:42.686Z,23.4
2019-02-24T02:18:32.728Z,23.8
2019-02-24T02:19:23.294Z,24.2
2019-02-24T02:20:13.346Z,24.6
2019-02-24T02:21:03.145Z,25.1
2019-02-24T02:21:53.535Z,25.4
2019-02-24T02:22:43.293Z,25.9
2019-02-24T02:23:32.748Z,26.3
2019-02-24T02:24:23.665Z,26.7
2019-02-24T02:25:12.945Z,27.1
2019-02-24T02:26:02.449Z,27.4
2019-02-24T02:27:43.163Z,28.3
2019-02-24T02:28:33.435Z,28.6
2019-02-24T02:29:22.677Z,29.1
2019-02-24T02:30:13.488Z,29.4
2019-02-24T02:31:04.159Z,29.7
2019-02-24T02:31:53.944Z,30.1
2019-02-24T02:32:43.979Z,30.4
2019-02-24T02:33:34.007Z,30.8
2019-02-24T02:34:23.513Z,31.1
2019-02-24T02:35:14.160Z,31.4
2019-02-24T02:36:03.889Z,31.8
2019-02-24T02:36:54.526Z,32.1
2019-02-24T02:37:44.555Z,32.5
2019-02-24T02:38:34.072Z,32.8
2019-02-24T02:39:24.439Z,33.1
2019-02-24T02:40:14.753Z,33.4
2019-02-24T02:41:04.575Z,33.8
2019-02-24T02:41:54.682Z,34.1
2019-02-24T02:42:44.354Z,34.3
2019-02-24T02:43:34.965Z,34.6
2019-02-24T02:44:25.055Z,34.9
2019-02-24T02:45:15.096Z,35.1
2019-02-24T02:46:04.625Z,35.4
2019-02-24T02:46:55.255Z,35.7
2019-02-24T02:47:45.012Z,35.9
2019-02-24T02:48:35.105Z,36.2
2019-02-24T02:49:25.104Z,36.4
2019-02-24T02:50:15.557Z,36.5
2019-02-24T02:51:05.310Z,36.6
2019-02-24T02:51:55.301Z,36.8
2019-02-24T02:52:45.320Z,36.9
2019-02-24T02:53:35.437Z,37
2019-02-24T02:54:24.927Z,37.2
2019-02-24T02:55:15.241Z,37.3
2019-02-24T02:56:05.629Z,37.4
2019-02-24T02:56:55.906Z,37.6
2019-02-24T02:57:45.967Z,37.8
2019-02-24T02:58:34.959Z,37.9
2019-02-24T02:59:26.091Z,38.1
2019-02-24T03:00:15.572Z,38.1
2019-02-24T03:01:05.882Z,38.2
2019-02-24T03:01:56.257Z,38.3
2019-02-24T03:02:45.752Z,38.4
2019-02-24T03:03:34.979Z,38.4
2019-02-24T03:04:25.857Z,38.6
2019-02-24T03:07:58.354Z,39
2019-02-24T03:08:48.398Z,39.1
2019-02-24T03:09:39.007Z,39.2
2019-02-24T03:10:28.720Z,39.3
2019-02-24T03:11:19.405Z,39.4
2019-02-24T03:12:08.881Z,39.5
2019-02-24T03:12:59.256Z,39.6
2019-02-24T03:13:48.707Z,39.7
2019-02-24T03:14:39.346Z,39.8
2019-02-24T03:15:28.529Z,40
2019-02-24T03:16:19.690Z,40.1
2019-02-24T03:17:09.275Z,40.3
2019-02-24T03:17:59.823Z,40.3
2019-02-24T03:18:49.645Z,40.4
2019-02-24T03:19:39.402Z,40.5
2019-02-24T03:20:29.423Z,40.6
2019-02-24T03:21:19.833Z,40.7
2019-02-24T03:22:09.823Z,40.8
2019-02-24T03:22:59.335Z,40.9
2019-02-24T03:23:49.978Z,41
2019-02-24T03:24:39.557Z,41.1
2019-02-24T03:25:30.380Z,41.3
2019-02-24T03:26:19.904Z,41.3
2019-02-24T03:27:09.938Z,41.4
2019-02-24T03:27:59.747Z,41.6
2019-02-24T03:28:50.057Z,41.7
2019-02-24T03:29:39.850Z,41.8
2019-02-24T03:30:29.993Z,41.8
2019-02-24T03:31:20.121Z,41.8
2019-02-24T03:32:10.330Z,41.8
2019-02-24T03:33:00.421Z,41.9
2019-02-24T03:33:51.070Z,41.9
2019-02-24T03:34:40.940Z,41.9
2019-02-24T03:35:30.488Z,42
2019-02-24T03:36:20.884Z,42
2019-02-24T03:37:10.583Z,42.1
2019-02-24T03:38:00.634Z,42.1
2019-02-24T03:38:50.971Z,42.1
2019-02-24T03:39:41.293Z,42.1
2019-02-24T03:40:31.067Z,42.1
2019-02-24T03:41:21.072Z,42.1
2019-02-24T03:42:11.474Z,42.1
2019-02-24T03:43:00.979Z,42.1
2019-02-24T03:43:51.439Z,42.1
2019-02-24T03:44:41.061Z,42.2
2019-02-24T03:45:31.439Z,42.2
2019-02-24T03:46:21.492Z,42.3
2019-02-24T03:47:11.522Z,42.2
2019-02-24T03:48:01.561Z,42.3
2019-02-24T03:48:51.935Z,42.3
2019-02-24T03:49:41.964Z,42.3
2019-02-24T03:50:31.506Z,42.3
2019-02-24T03:51:21.543Z,42.3
2019-02-24T03:52:12.146Z,42.3
2019-02-24T03:53:01.741Z,42.3
2019-02-24T03:53:51.984Z,42.3
2019-02-24T03:54:42.379Z,42.3
2019-02-24T03:55:32.081Z,42.3
2019-02-24T03:56:22.464Z,42.3
2019-02-24T03:57:12.228Z,42.3
2019-02-24T03:58:02.052Z,42.3
2019-02-24T03:58:52.048Z,42.3
2019-02-24T03:59:42.380Z,42.3
2019-02-24T04:00:32.178Z,42.3
2019-02-24T04:01:22.525Z,42.3
2019-02-24T04:02:12.837Z,42.3
2019-02-24T04:03:02.644Z,42.3
2019-02-24T04:03:52.703Z,42.3
2019-02-24T04:04:42.698Z,42.3
2019-02-24T04:05:32.800Z,42.3
2019-02-24T04:06:22.808Z,42.3
2019-02-24T04:07:13.153Z,42.3
2019-02-24T04:08:02.700Z,42.3
2019-02-24T04:08:53.030Z,42.4
2019-02-24T04:09:43.391Z,42.3
2019-02-24T04:10:32.566Z,42.3
2019-02-24T04:11:23.165Z,42.3
2019-02-24T04:12:13.215Z,42.3
2019-02-24T04:13:03.342Z,42.4
2019-02-24T04:13:52.857Z,42.3
2019-02-24T04:14:43.374Z,42.3
2019-02-24T04:15:33.464Z,42.3
2019-02-24T04:16:23.225Z,42.3
2019-02-24T04:17:13.277Z,42.3
2019-02-24T04:18:03.640Z,42.3
2019-02-24T04:18:53.337Z,42.3
2019-02-24T04:19:43.460Z,42.3
2019-02-24T04:20:33.815Z,42.3
2019-02-24T04:21:24.169Z,42.3
2019-02-24T04:22:14.205Z,42.3
2019-02-24T04:23:03.429Z,42.3
2019-02-24T04:23:54.034Z,42.3
2019-02-24T04:24:44.342Z,42.3
2019-02-24T04:25:33.847Z,42.3
2019-02-24T04:26:23.967Z,42.3
2019-02-24T04:27:16.342Z,42.3
2019-02-24T04:28:04.298Z,42.3
2019-02-24T04:28:54.617Z,42.3
2019-02-24T04:29:44.147Z,42.3
2019-02-24T04:30:33.694Z,42.3
2019-02-24T04:31:24.890Z,42.3
2019-02-24T04:32:14.600Z,42.3
2019-02-24T04:33:04.923Z,42.3
2019-02-24T04:33:54.992Z,42.3
2019-02-24T04:34:44.458Z,42.3
2019-02-24T04:35:34.931Z,42.3
2019-02-24T04:36:24.897Z,42.3
2019-02-24T04:37:14.662Z,42.3
2019-02-24T04:38:04.703Z,42.3
2019-02-24T04:38:54.491Z,42.3
2019-02-24T04:39:44.543Z,42.2
2019-02-24T04:40:35.447Z,42.2
2019-02-24T04:41:25.037Z,42.2
2019-02-24T04:42:15.278Z,42.2
2019-02-24T04:43:05.841Z,42.2
2019-02-24T04:43:55.688Z,42.2
2019-02-24T04:44:45.452Z,42.2
2019-02-24T04:45:35.468Z,42.2
2019-02-24T04:46:25.038Z,42.2
2019-02-24T04:47:15.911Z,42.1
2019-02-24T04:48:04.933Z,42.1
2019-02-24T04:48:55.262Z,42.1
2019-02-24T04:49:45.573Z,42.1
2019-02-24T04:50:35.092Z,42.1
2019-02-24T04:51:25.119Z,42.1
2019-02-24T04:52:15.455Z,42.1
2019-02-24T04:53:05.858Z,42.1
2019-02-24T04:53:55.276Z,42.1
2019-02-24T04:54:45.420Z,42.1
2019-02-24T04:55:36.462Z,42.1
2019-02-24T04:56:26.024Z,42.1
2019-02-24T04:57:16.315Z,42.1
2019-02-24T04:58:06.078Z,42.1
2019-02-24T04:58:56.667Z,42
2019-02-24T04:59:46.462Z,42
2019-02-24T05:00:36.796Z,42
2019-02-24T05:01:26.845Z,42
2019-02-24T05:02:16.907Z,42
2019-02-24T05:03:06.713Z,42
2019-02-24T05:03:56.767Z,42
2019-02-24T05:04:46.517Z,41.9
2019-02-24T05:05:37.113Z,42
2019-02-24T05:06:26.927Z,42
2019-02-24T05:07:17.264Z,42
2019-02-24T05:08:07.035Z,42
2019-02-24T05:08:57.101Z,41.9
2019-02-24T05:09:46.847Z,41.9
2019-02-24T05:10:37.234Z,41.9
2019-02-24T05:11:27.002Z,41.9
2019-02-24T05:12:17.299Z,41.9
2019-02-24T05:13:07.450Z,41.9
2019-02-24T05:13:57.139Z,41.9
2019-02-24T05:14:47.794Z,41.9
2019-02-24T05:15:37.564Z,41.9
2019-02-24T05:16:27.639Z,41.9
2019-02-24T05:17:17.959Z,41.9
2019-02-24T05:18:07.458Z,41.9
2019-02-24T05:18:57.789Z,41.9
2019-02-24T05:19:48.086Z,41.8
2019-02-24T05:20:38.141Z,41.8
2019-02-24T05:21:28.223Z,41.8
2019-02-24T05:22:18.020Z,41.8
2019-02-24T05:23:07.791Z,41.8
2019-02-24T05:23:58.108Z,41.8
2019-02-24T05:24:47.876Z,41.8
2019-02-24T05:25:38.306Z,41.8
2019-02-24T05:26:28.304Z,41.8
2019-02-24T05:27:17.782Z,41.8
2019-02-24T05:28:08.372Z,41.8
2019-02-24T05:28:58.710Z,41.8
2019-02-24T05:29:51.647Z,41.8
2019-02-24T05:30:38.312Z,41.8
2019-02-24T05:31:28.902Z,41.7
2019-02-24T05:32:18.417Z,41.7
2019-02-24T05:33:08.444Z,41.8
2019-02-24T05:33:58.775Z,41.7
2019-02-24T05:34:49.142Z,41.7
2019-02-24T05:35:38.905Z,41.6
2019-02-24T05:36:31.338Z,41.7
2019-02-24T05:37:19.030Z,41.7
2019-02-24T05:38:08.834Z,41.6
2019-02-24T05:38:59.187Z,41.6
2019-02-24T05:39:49.447Z,41.6
2019-02-24T05:40:39.219Z,41.6
2019-02-24T05:41:29.291Z,41.6
2019-02-24T05:42:19.636Z,41.6
2019-02-24T05:43:09.688Z,41.6
2019-02-24T05:43:59.193Z,41.6
2019-02-24T05:44:49.831Z,41.6
2019-02-24T05:45:39.604Z,41.6
2019-02-24T05:46:29.651Z,41.6
2019-02-24T05:47:19.484Z,41.5
2019-02-24T05:48:10.051Z,41.6
2019-02-24T05:49:00.061Z,41.6
2019-02-24T05:49:49.878Z,41.6
2019-02-24T05:50:39.631Z,41.6
2019-02-24T05:51:29.452Z,41.6
2019-02-24T05:52:20.049Z,41.6
2019-02-24T05:53:09.590Z,41.5
2019-02-24T05:53:59.636Z,41.5
2019-02-24T05:54:52.372Z,41.5
2019-02-24T05:55:40.230Z,41.5
2019-02-24T05:56:30.618Z,41.5
2019-02-24T05:57:20.143Z,41.4
2019-02-24T05:58:10.211Z,41.4
2019-02-24T05:59:00.480Z,41.5
2019-02-24T06:00:00.641Z,41.4
2019-02-24T06:00:40.314Z,41.4
2019-02-24T06:01:30.938Z,41.4
2019-02-24T06:02:20.703Z,41.4
2019-02-24T06:03:10.506Z,41.4
2019-02-24T06:04:00.558Z,41.4
2019-02-24T06:05:58.715Z,41.4
2019-02-24T06:06:47.970Z,41.3
2019-02-24T06:07:38.824Z,41.3
2019-02-24T06:08:28.850Z,41.3
2019-02-24T06:09:18.628Z,41.3
2019-02-24T06:10:08.672Z,41.3
2019-02-24T06:10:59.047Z,41.3
2019-02-24T06:11:49.100Z,41.3
2019-02-24T06:12:39.402Z,41.3
2019-02-24T06:13:28.917Z,41.3
2019-02-24T06:14:18.950Z,41.3
2019-02-24T06:15:08.585Z,41.3
2019-02-24T06:15:58.824Z,41.3
2019-02-24T06:16:49.405Z,41.3
2019-02-24T06:17:39.462Z,41.3
2019-02-24T06:18:29.535Z,41.2
2019-02-24T06:19:19.059Z,41.2
2019-02-24T06:20:09.427Z,41.2
2019-02-24T06:20:59.499Z,41.2
2019-02-24T06:21:49.194Z,41.2
2019-02-24T06:22:39.025Z,41.2
2019-02-24T06:23:30.109Z,41.2
2019-02-24T06:24:19.657Z,41.2
2019-02-24T06:25:09.650Z,41.2
2019-02-24T06:26:00.279Z,41.2
2019-02-24T06:26:50.146Z,41.1
2019-02-24T06:27:40.142Z,41.1
2019-02-24T06:28:30.530Z,41.1
2019-02-24T06:29:19.987Z,41.1
2019-02-24T06:30:10.936Z,41.1
2019-02-24T06:31:00.376Z,41.1
2019-02-24T06:31:49.632Z,41.1
2019-02-24T06:32:40.241Z,41.1
2019-02-24T06:33:30.807Z,41.1
2019-02-24T06:34:20.344Z,41
2019-02-24T06:35:10.388Z,41.1
2019-02-24T06:36:00.473Z,41
2019-02-24T06:36:50.496Z,41.1
2019-02-24T06:37:40.824Z,41
2019-02-24T06:38:31.141Z,41
2019-02-24T06:39:20.694Z,41
2019-02-24T06:40:10.483Z,41
2019-02-24T06:41:02.733Z,41
2019-02-24T06:41:51.390Z,40.9
2019-02-24T06:42:41.166Z,40.9
2019-02-24T06:43:30.176Z,40.9
2019-02-24T06:44:21.291Z,40.9
2019-02-24T06:45:11.328Z,40.9
2019-02-24T06:46:01.094Z,40.9
2019-02-24T06:46:51.169Z,40.9
2019-02-24T06:47:41.550Z,40.9
2019-02-24T06:48:31.591Z,40.9
2019-02-24T06:49:20.861Z,40.9
2019-02-24T06:50:11.440Z,40.9
2019-02-24T06:51:01.209Z,40.8
2019-02-24T06:51:51.803Z,40.8
2019-02-24T06:52:42.033Z,40.8
2019-02-24T06:53:31.430Z,40.9
2019-02-24T06:54:21.943Z,40.8
2019-02-24T06:55:11.245Z,40.8
2019-02-24T06:56:01.535Z,40.8
2019-02-24T06:56:51.560Z,40.8
2019-02-24T06:57:41.938Z,40.8
2019-02-24T06:58:31.208Z,40.8
2019-02-24T06:59:21.020Z,40.8
2019-02-24T07:00:19.142Z,40.8
2019-02-24T07:01:01.968Z,40.8
2019-02-24T07:01:51.139Z,40.7
2019-02-24T07:02:42.307Z,40.7
2019-02-24T07:03:31.883Z,40.7
2019-02-24T07:05:58.437Z,40.7
2019-02-24T07:06:48.035Z,40.7
2019-02-24T07:07:38.062Z,40.7
2019-02-24T07:08:27.849Z,40.6
2019-02-24T07:09:20.130Z,40.6
2019-02-24T07:10:08.749Z,40.6
2019-02-24T07:10:58.497Z,40.6
2019-02-24T07:11:48.324Z,40.6
2019-02-24T07:12:38.425Z,40.7
2019-02-24T07:13:28.949Z,48.3
2019-02-24T07:14:17.896Z,46.9
2019-02-24T07:15:08.605Z,45.5
2019-02-24T07:15:58.822Z,50.1
2019-02-24T07:16:48.894Z,51.8
2019-02-24T07:17:39.746Z,51.8
2019-02-24T07:18:29.015Z,51.4
2019-02-24T07:19:18.244Z,50.9
2019-02-24T07:20:09.902Z,50.4
2019-02-24T07:21:00.014Z,49.9
2019-02-24T07:21:49.739Z,49.5
2019-02-24T07:22:39.483Z,49.1
2019-02-24T07:23:30.113Z,48.8
2019-02-24T07:24:19.936Z,48.4
2019-02-24T07:25:09.482Z,48.1
2019-02-24T07:25:59.739Z,47.9
2019-02-24T07:26:50.060Z,47.6
2019-02-24T07:27:40.124Z,47.4
2019-02-24T07:28:29.861Z,47.2
2019-02-24T07:29:20.509Z,47
2019-02-24T07:30:09.996Z,46.8
2019-02-24T07:31:00.685Z,46.6
2019-02-24T07:31:50.108Z,46.5
2019-02-24T07:32:40.478Z,46.4
2019-02-24T07:33:30.811Z,46.3
2019-02-24T07:34:20.593Z,46.1
2019-02-24T07:35:10.931Z,46
2019-02-24T07:36:00.712Z,45.9
2019-02-24T07:36:50.818Z,46.4
2019-02-24T07:37:40.267Z,50.2
2019-02-24T07:38:31.128Z,49
2019-02-24T07:39:21.216Z,50
2019-02-24T07:40:11.255Z,52.8
2019-02-24T07:41:01.036Z,53.8
2019-02-24T07:41:50.783Z,53.5
2019-02-24T07:42:41.405Z,52.8
2019-02-24T07:43:30.487Z,52.1
2019-02-24T07:44:20.761Z,51.5
2019-02-24T07:45:11.320Z,51
2019-02-24T07:46:00.577Z,50.4
2019-02-24T07:46:50.383Z,49.9
2019-02-24T07:47:41.443Z,49.5
2019-02-24T07:48:31.233Z,49.1
2019-02-24T07:49:21.575Z,48.7
2019-02-24T07:50:11.160Z,48.4
2019-02-24T07:51:01.178Z,48.1
2019-02-24T07:51:52.027Z,48.6
2019-02-24T07:52:41.322Z,50.8
2019-02-24T07:53:31.852Z,50.3
2019-02-24T07:54:22.200Z,52
2019-02-24T07:55:11.969Z,53.9
2019-02-24T07:56:02.030Z,54.6
2019-02-24T07:56:52.114Z,54.6
2019-02-24T07:57:42.473Z,54.1
2019-02-24T07:58:32.465Z,53.8
2019-02-24T07:59:22.542Z,53.6
2019-02-24T08:00:12.042Z,53.6
2019-02-24T08:01:02.374Z,53.8
2019-02-24T08:01:52.697Z,54
2019-02-24T08:02:42.291Z,54.3
2019-02-24T08:03:32.559Z,54.4
2019-02-24T08:04:22.864Z,54.6
2019-02-24T08:05:27.589Z,54.6
2019-02-24T08:06:02.978Z,54.6
2019-02-24T08:06:53.099Z,54.7
2019-02-24T08:07:42.814Z,54.8
2019-02-24T08:08:32.594Z,54.9
2019-02-24T08:09:23.198Z,54.9
2019-02-24T08:10:13.259Z,55
2019-02-24T08:11:03.031Z,55.1
2019-02-24T08:11:53.089Z,55.2
2019-02-24T08:12:43.439Z,55.3
2019-02-24T08:13:33.211Z,55.3
2019-02-24T08:14:23.286Z,55.4
2019-02-24T08:15:13.636Z,55.5
2019-02-24T08:16:03.664Z,55.6
2019-02-24T08:16:53.498Z,55.6
2019-02-24T08:17:43.546Z,55.7
2019-02-24T08:18:33.853Z,55.8
2019-02-24T08:19:23.909Z,55.8
2019-02-24T08:20:13.691Z,55.9
2019-02-24T08:21:05.135Z,56.1
2019-02-24T08:21:53.798Z,56.1
2019-02-24T08:22:44.100Z,56.1
2019-02-24T08:23:33.961Z,56.3
2019-02-24T08:24:24.223Z,56.3
2019-02-24T08:25:13.720Z,56.4
2019-02-24T08:26:04.331Z,56.5
2019-02-24T08:26:54.403Z,56.6
2019-02-24T08:27:44.451Z,56.7
2019-02-24T08:28:34.225Z,56.8
2019-02-24T08:29:24.068Z,56.9
2019-02-24T08:30:14.630Z,56.9
2019-02-24T08:31:04.693Z,57.1
2019-02-24T08:31:54.163Z,57.1
2019-02-24T08:32:44.541Z,57.1
2019-02-24T08:33:34.828Z,57.2
2019-02-24T08:34:24.615Z,57.3
2019-02-24T08:35:14.460Z,57.3
2019-02-24T08:36:04.754Z,57.3
2019-02-24T08:36:54.625Z,57
2019-02-24T08:37:44.568Z,56.6
2019-02-24T08:38:34.895Z,56.6
2019-02-24T08:39:25.248Z,56.7
2019-02-24T08:40:14.873Z,56.9
2019-02-24T08:41:04.845Z,57.2
2019-02-24T08:41:54.857Z,57.3
2019-02-24T08:42:45.458Z,57.4
2019-02-24T08:43:35.515Z,57.5
2019-02-24T08:44:27.615Z,57.6
2019-02-24T08:45:15.372Z,57.6
2019-02-24T08:46:05.189Z,57.5
2019-02-24T08:46:54.989Z,57.3
2019-02-24T08:47:45.364Z,57.1
2019-02-24T08:48:34.607Z,57.1
2019-02-24T08:49:25.426Z,57.1
2019-02-24T08:50:15.967Z,57.3
2019-02-24T08:51:06.072Z,57.4
2019-02-24T08:51:56.163Z,57.5
2019-02-24T08:52:46.149Z,57.6
2019-02-24T08:53:35.917Z,57.6
2019-02-24T08:54:26.252Z,57.7
2019-02-24T08:55:16.086Z,57.7
2019-02-24T08:56:58.610Z,57.8
2019-02-24T08:57:46.483Z,57.9
2019-02-24T08:58:36.592Z,58.1
2019-02-24T08:59:26.621Z,58.2
2019-02-24T09:00:16.430Z,58.3
2019-02-24T09:01:06.726Z,58.4
2019-02-24T09:01:56.814Z,58.4
2019-02-24T09:04:26.946Z,58.6
2019-02-24T09:05:15.467Z,58.7
2019-02-24T09:06:07.046Z,58.8
2019-02-24T09:06:56.881Z,58.9
2019-02-24T09:07:47.183Z,58.9
2019-02-24T09:08:36.441Z,59.1
2019-02-24T09:09:26.996Z,59.1
2019-02-24T09:10:17.333Z,59.2
2019-02-24T09:11:07.433Z,59.2
2019-02-24T09:11:56.688Z,59.3
2019-02-24T09:12:46.961Z,59.3
2019-02-24T09:13:37.286Z,59.4
2019-02-24T09:14:27.644Z,59.5
2019-02-24T09:15:17.733Z,59.5
2019-02-24T09:16:07.827Z,59.3
2019-02-24T09:16:57.528Z,58.9
2019-02-24T09:17:47.664Z,58.8
2019-02-24T09:18:37.919Z,58.7
2019-02-24T09:19:27.725Z,58.8
2019-02-24T09:20:18.140Z,58.8
2019-02-24T09:21:08.111Z,58.9
2019-02-24T09:21:58.180Z,58.8
2019-02-24T09:22:47.941Z,58.7
2019-02-24T09:24:26.970Z,58.5
2019-02-24T09:26:08.150Z,58.9
2019-02-24T09:26:58.195Z,59.1
2019-02-24T09:27:48.528Z,59.3
2019-02-24T09:28:38.017Z,59.5
2019-02-24T09:29:27.875Z,59.6
2019-02-24T09:30:18.418Z,59.5
2019-02-24T09:31:08.229Z,59.4
2019-02-24T09:31:58.029Z,59.4
2019-02-24T09:32:48.025Z,59.2
2019-02-24T09:33:38.945Z,59.1
2019-02-24T09:34:29.025Z,59.3
2019-02-24T09:35:18.277Z,59.6
2019-02-24T09:36:08.527Z,59.8
2019-02-24T09:36:58.595Z,59.9
2019-02-24T09:37:48.925Z,60.1
2019-02-24T09:38:39.047Z,60.1
2019-02-24T09:39:29.307Z,60.2
2019-02-24T09:40:19.090Z,60.2
2019-02-24T09:41:08.874Z,60.3
2019-02-24T09:41:59.522Z,60.3
2019-02-24T09:42:48.985Z,60.4
2019-02-24T09:43:39.599Z,60.4
2019-02-24T09:44:29.672Z,60.3
2019-02-24T09:45:19.716Z,60.1
2019-02-24T09:46:09.819Z,60.1
2019-02-24T09:46:59.818Z,60.3
2019-02-24T09:47:52.459Z,60.4
2019-02-24T09:48:39.964Z,60.6
2019-02-24T09:49:30.104Z,60.8
2019-02-24T09:50:20.036Z,60.8
2019-02-24T09:51:10.103Z,60.9
2019-02-24T09:51:59.889Z,61
2019-02-24T09:52:49.408Z,61.1
2019-02-24T09:53:40.278Z,61.1
2019-02-24T09:54:30.327Z,61.3
2019-02-24T09:55:20.408Z,61.3
2019-02-24T09:56:10.438Z,61.4
2019-02-24T09:57:00.491Z,61.4
2019-02-24T09:57:50.574Z,61.4
2019-02-24T09:58:40.613Z,61.4
2019-02-24T09:59:30.111Z,61.4
2019-02-24T10:00:22.916Z,61.4
2019-02-24T10:01:16.311Z,61.4
2019-02-24T10:02:00.838Z,61.4
2019-02-24T10:02:50.603Z,61.5
2019-02-24T10:03:40.401Z,61.6
2019-02-24T10:04:30.743Z,61.8
2019-02-24T10:06:58.538Z,62
2019-02-24T10:07:48.553Z,62.1
2019-02-24T10:08:38.888Z,62.1
2019-02-24T10:09:28.653Z,62.2
2019-02-24T10:10:18.730Z,62.1
2019-02-24T10:11:08.773Z,62.2
2019-02-24T10:11:58.909Z,62.3
2019-02-24T10:12:49.284Z,62.3
2019-02-24T10:13:39.063Z,62.4
2019-02-24T10:14:29.066Z,62.4
2019-02-24T10:15:19.415Z,62.4
2019-02-24T10:16:09.390Z,62.5
2019-02-24T10:16:58.958Z,62.6
2019-02-24T10:17:49.287Z,62.7
2019-02-24T10:18:39.289Z,62.7
2019-02-24T10:19:28.848Z,62.8
2019-02-24T10:20:19.690Z,62.8
2019-02-24T10:21:09.027Z,62.9
2019-02-24T10:21:59.520Z,62.9
2019-02-24T10:22:49.844Z,63.1
2019-02-24T10:23:39.361Z,63.1
2019-02-24T10:24:29.992Z,63.1
2019-02-24T10:25:20.022Z,63.3
2019-02-24T10:26:09.242Z,63.3
2019-02-24T10:27:00.122Z,63.4
2019-02-24T10:27:50.192Z,63.4
2019-02-24T10:28:40.246Z,63.5
2019-02-24T10:29:30.037Z,63.5
2019-02-24T10:30:20.365Z,63.6
2019-02-24T10:31:09.867Z,63.7
2019-02-24T10:31:59.727Z,63.8
2019-02-24T10:32:50.311Z,63.8
2019-02-24T10:33:40.027Z,63.8
2019-02-24T10:34:30.634Z,63.9
2019-02-24T10:35:20.439Z,63.9
2019-02-24T10:36:10.529Z,64
2019-02-24T10:37:00.802Z,64.1
2019-02-24T10:37:50.596Z,64.1
2019-02-24T10:38:40.636Z,64.2
2019-02-24T10:39:34.932Z,64.1
2019-02-24T10:40:20.522Z,63.9
2019-02-24T10:41:10.833Z,63.8
2019-02-24T10:42:01.168Z,63.9
2019-02-24T10:42:50.933Z,64
2019-02-24T10:43:40.991Z,63.8
2019-02-24T10:44:31.095Z,62.6
2019-02-24T10:45:21.118Z,60.8
2019-02-24T10:46:13.311Z,59.3
2019-02-24T10:47:03.799Z,58.9
2019-02-24T10:47:51.073Z,59.1
2019-02-24T10:48:41.403Z,59.4
2019-02-24T10:49:31.666Z,59.6
2019-02-24T10:50:21.458Z,59.9
2019-02-24T10:51:11.241Z,60.2
2019-02-24T10:52:01.553Z,60.4
2019-02-24T10:52:51.961Z,60.5
2019-02-24T10:53:41.954Z,60.6
2019-02-24T10:54:31.711Z,60.7
2019-02-24T10:55:22.105Z,60.9
2019-02-24T10:56:12.123Z,61.1
2019-02-24T10:57:01.603Z,61.3
2019-02-24T10:57:51.973Z,61.6
2019-02-24T10:58:42.305Z,61.8
2019-02-24T10:59:32.341Z,61.9
2019-02-24T11:00:22.257Z,61.8
2019-02-24T11:01:12.192Z,61.8
2019-02-24T11:02:02.001Z,61.8
2019-02-24T11:02:52.575Z,61.9
2019-02-24T11:03:42.360Z,61.9
2019-02-24T11:04:32.420Z,61.9
2019-02-24T11:05:22.534Z,62.1
2019-02-24T11:06:12.247Z,62.3
2019-02-24T11:07:02.618Z,62.5
2019-02-24T11:07:52.655Z,62.7
2019-02-24T11:08:42.740Z,62.8
2019-02-24T11:09:32.730Z,62.9
2019-02-24T11:10:23.077Z,62.9
2019-02-24T11:11:13.154Z,62.9
2019-02-24T11:12:03.202Z,63
2019-02-24T11:12:53.236Z,63
2019-02-24T11:13:43.019Z,63.1
2019-02-24T11:14:33.082Z,63.3
2019-02-24T11:15:22.147Z,63.4
2019-02-24T11:16:12.772Z,63.5
2019-02-24T11:17:53.310Z,63.6
2019-02-24T11:18:43.162Z,63.6
2019-02-24T11:19:33.704Z,63.7
2019-02-24T11:20:23.535Z,63.8
2019-02-24T11:21:13.574Z,63.8
2019-02-24T11:22:03.379Z,63.9
2019-02-24T11:23:08.036Z,63.9
2019-02-24T11:23:43.710Z,63.9